createdAt,value
2023-05-10T00:00:49.603Z,2.28
2023-05-10T00:03:17.438Z,2.10
2023-05-10T00:05:44.892Z,2.10
2023-05-10T00:08:12.364Z,2.22
2023-05-10T00:10:40.105Z,2.40
2023-05-10T00:13:07.645Z,1.90
2023-05-10T00:15:35.675Z,2.47
2023-05-10T00:18:03.471Z,2.30
2023-05-10T00:20:30.926Z,2.60
2023-05-10T00:22:58.385Z,2.45
2023-05-10T00:25:26.067Z,2.60
2023-05-10T00:27:56.140Z,2.30
2023-05-10T00:30:23.806Z,2.55
2023-05-10T00:32:52.696Z,2.70
2023-05-10T00:35:20.372Z,2.70
2023-05-10T00:37:48.978Z,2.60
2023-05-10T00:40:16.945Z,2.62
2023-05-10T00:42:45.373Z,2.30
2023-05-10T00:45:13.019Z,2.80
2023-05-10T00:47:40.773Z,2.60
2023-05-10T00:50:09.840Z,2.80
2023-05-10T00:52:38.199Z,2.75
2023-05-10T00:55:07.426Z,2.60
2023-05-10T00:57:34.942Z,2.58
2023-05-10T01:00:03.216Z,3.35
2023-05-10T01:02:30.951Z,3.15
2023-05-10T01:04:58.516Z,3.37
2023-05-10T01:07:26.482Z,3.25
2023-05-10T01:09:54.240Z,3.20
2023-05-10T01:12:21.924Z,3.20
2023-05-10T01:14:49.825Z,3.00
2023-05-10T01:17:17.793Z,3.25
2023-05-10T01:19:45.289Z,3.28
2023-05-10T01:22:31.370Z,3.67
2023-05-10T01:25:20.414Z,3.10
2023-05-10T01:27:59.812Z,3.17
2023-05-10T01:30:59.199Z,3.30
2023-05-10T01:33:30.674Z,3.20
2023-05-10T01:36:13.520Z,3.55
2023-05-10T01:38:51.558Z,3.85
2023-05-10T01:41:29.209Z,3.30
2023-05-10T01:44:02.792Z,3.40
2023-05-10T01:46:38.464Z,3.45
2023-05-10T01:49:10.662Z,3.17
2023-05-10T01:51:54.723Z,3.30
2023-05-10T01:54:24.114Z,3.72
2023-05-10T01:56:58.255Z,3.90
2023-05-10T01:59:29.451Z,3.45
2023-05-10T02:01:59.874Z,3.10
2023-05-10T02:04:28.190Z,3.22
2023-05-10T02:06:56.238Z,3.45
2023-05-10T02:09:24.582Z,3.53
2023-05-10T02:11:52.722Z,3.28
2023-05-10T02:14:20.413Z,3.67
2023-05-10T02:16:48.670Z,3.33
2023-05-10T02:19:16.495Z,3.42
2023-05-10T02:21:44.398Z,3.00
2023-05-10T02:24:12.542Z,3.50
2023-05-10T02:26:40.653Z,3.42
2023-05-10T02:29:09.262Z,3.08
2023-05-10T02:31:37.050Z,3.35
2023-05-10T02:34:07.220Z,3.15
2023-05-10T02:36:34.918Z,3.30
2023-05-10T02:39:03.408Z,3.37
2023-05-10T02:41:32.243Z,3.03
2023-05-10T02:44:03.667Z,3.65
2023-05-10T02:46:31.706Z,2.90
2023-05-10T02:48:59.560Z,3.05
2023-05-10T02:51:29.650Z,3.40
2023-05-10T02:53:58.471Z,3.20
2023-05-10T02:56:30.470Z,3.45
2023-05-10T03:01:25.629Z,3.45
2023-05-10T03:03:53.070Z,3.10
2023-05-10T03:06:20.800Z,3.25
2023-05-10T03:08:48.339Z,3.08
2023-05-10T03:11:41.185Z,3.08
2023-05-10T03:14:11.515Z,3.10
2023-05-10T03:16:48.079Z,3.20
2023-05-10T03:19:25.954Z,3.05
2023-05-10T03:21:54.846Z,3.05
2023-05-10T03:24:24.336Z,3.47
2023-05-10T03:26:53.970Z,3.45
2023-05-10T03:29:21.966Z,3.20
2023-05-10T03:31:49.550Z,3.62
2023-05-10T03:34:18.328Z,3.00
2023-05-10T03:36:46.093Z,3.10
2023-05-10T03:39:13.514Z,3.33
2023-05-10T03:41:41.304Z,3.12
2023-05-10T03:44:09.658Z,3.58
2023-05-10T03:46:37.142Z,3.20
2023-05-10T03:49:04.635Z,3.17
2023-05-10T03:51:32.593Z,3.10
2023-05-10T03:54:00.157Z,3.70
2023-05-10T03:56:27.672Z,3.12
2023-05-10T03:58:55.417Z,3.33
2023-05-10T04:01:22.919Z,3.15
2023-05-10T04:03:50.804Z,3.45
2023-05-10T04:06:18.383Z,3.20
2023-05-10T04:08:46.237Z,3.28
2023-05-10T04:11:14.653Z,3.70
2023-05-10T04:13:42.375Z,3.42
2023-05-10T04:16:09.907Z,3.15
2023-05-10T04:18:37.588Z,3.55
2023-05-10T04:21:04.999Z,2.97
2023-05-10T04:23:32.362Z,3.35
2023-05-10T04:26:01.586Z,3.33
2023-05-10T04:28:29.236Z,3.72
2023-05-10T04:31:04.146Z,3.90
2023-05-10T04:33:32.069Z,3.58
2023-05-10T04:35:59.782Z,3.33
2023-05-10T04:38:27.909Z,3.45
2023-05-10T04:40:55.902Z,3.60
2023-05-10T04:43:23.327Z,3.50
2023-05-10T04:45:51.218Z,3.40
2023-05-10T04:48:18.927Z,3.45
2023-05-10T04:50:46.381Z,3.92
2023-05-10T04:53:15.861Z,3.30
2023-05-10T04:55:43.712Z,3.47
2023-05-10T04:58:11.085Z,3.80
2023-05-10T05:00:38.499Z,3.37
2023-05-10T05:03:06.416Z,4.47
2023-05-10T05:05:33.805Z,3.35
2023-05-10T05:08:01.738Z,3.37
2023-05-10T05:10:29.464Z,3.50
2023-05-10T05:12:57.019Z,3.70
2023-05-10T05:15:24.496Z,3.42
2023-05-10T05:17:52.602Z,3.58
2023-05-10T05:20:20.107Z,3.70
2023-05-10T05:22:47.547Z,3.80
2023-05-10T05:25:16.196Z,3.70
2023-05-10T05:27:43.581Z,3.20
2023-05-10T05:30:11.265Z,3.20
2023-05-10T05:32:39.004Z,3.70
2023-05-10T05:35:07.173Z,3.50
2023-05-10T05:37:35.144Z,3.20
2023-05-10T05:40:03.008Z,3.15
2023-05-10T05:42:32.230Z,3.33
2023-05-10T05:44:59.959Z,3.72
2023-05-10T05:47:27.728Z,3.20
2023-05-10T05:49:56.279Z,3.20
2023-05-10T05:52:23.683Z,3.58
2023-05-10T05:54:51.382Z,3.40
2023-05-10T05:57:18.765Z,3.08
2023-05-10T05:59:46.668Z,2.85
2023-05-10T06:02:14.359Z,2.83
2023-05-10T06:04:44.651Z,3.15
2023-05-10T06:07:12.280Z,3.00
2023-05-10T06:09:39.629Z,2.90
2023-05-10T06:12:07.303Z,3.20
2023-05-10T06:14:34.682Z,3.10
2023-05-10T06:17:05.081Z,3.17
2023-05-10T06:19:32.879Z,3.00
2023-05-10T06:22:00.367Z,3.20
2023-05-10T06:24:28.469Z,3.10
2023-05-10T06:26:56.147Z,2.90
2023-05-10T06:29:23.521Z,3.40
2023-05-10T06:31:51.046Z,2.92
2023-05-10T06:34:18.781Z,2.97
2023-05-10T06:36:46.460Z,2.80
2023-05-10T06:39:13.943Z,2.70
2023-05-10T06:41:41.999Z,2.92
2023-05-10T06:44:09.478Z,2.70
2023-05-10T06:46:37.394Z,3.50
2023-05-10T06:49:05.546Z,2.90
2023-05-10T06:51:33.857Z,3.00
2023-05-10T06:54:01.264Z,3.30
2023-05-10T06:56:28.971Z,2.95
2023-05-10T06:58:56.908Z,3.03
2023-05-10T07:03:52.060Z,2.60
2023-05-10T07:06:32.176Z,3.22
2023-05-10T07:09:01.568Z,3.03
2023-05-10T07:11:28.995Z,2.75
2023-05-10T07:13:56.423Z,3.10
2023-05-10T07:16:24.354Z,2.95
2023-05-10T07:18:51.835Z,3.08
2023-05-10T07:21:19.308Z,2.90
2023-05-10T07:23:47.052Z,2.97
2023-05-10T07:26:15.868Z,2.90
2023-05-10T07:28:43.327Z,2.80
2023-05-10T07:31:11.110Z,2.70
2023-05-10T07:33:38.926Z,2.78
2023-05-10T07:36:06.444Z,2.95
2023-05-10T07:38:34.249Z,2.95
2023-05-10T07:41:01.688Z,2.95
2023-05-10T07:43:29.122Z,2.65
2023-05-10T07:45:58.449Z,2.85
2023-05-10T07:48:26.134Z,2.70
2023-05-10T07:50:53.527Z,3.03
2023-05-10T07:53:21.734Z,2.55
2023-05-10T07:55:52.790Z,2.42
2023-05-10T07:58:20.157Z,2.50
2023-05-10T08:00:47.819Z,2.67
2023-05-10T08:03:15.525Z,2.50
2023-05-10T08:05:43.174Z,2.72
2023-05-10T08:08:10.553Z,2.95
2023-05-10T08:10:38.293Z,2.20
2023-05-10T08:13:05.702Z,1.60
2023-05-10T08:15:33.182Z,2.50
2023-05-10T08:18:01.001Z,2.30
2023-05-10T08:20:28.429Z,2.03
2023-05-10T08:22:56.189Z,2.53
2023-05-10T08:25:23.866Z,2.28
2023-05-10T08:27:51.674Z,2.33
2023-05-10T08:30:19.129Z,2.22
2023-05-10T08:32:46.829Z,2.33
2023-05-10T08:35:14.396Z,2.25
2023-05-10T08:37:41.979Z,1.80
2023-05-10T08:40:11.648Z,2.00
2023-05-10T08:42:41.727Z,2.17
2023-05-10T08:45:10.695Z,2.65
2023-05-10T08:47:39.043Z,2.20
2023-05-10T08:50:07.931Z,2.60
2023-05-10T08:52:40.003Z,2.42
2023-05-10T08:55:08.210Z,2.28
2023-05-10T08:57:36.977Z,2.42
2023-05-10T09:00:04.824Z,2.20
2023-05-10T09:02:32.644Z,2.30
2023-05-10T09:05:00.183Z,2.35
2023-05-10T09:07:28.125Z,2.35
2023-05-10T09:09:55.830Z,2.37
2023-05-10T09:12:24.038Z,2.15
2023-05-10T09:14:52.998Z,2.42
2023-05-10T09:17:21.055Z,1.98
2023-05-10T09:19:48.509Z,2.45
2023-05-10T09:22:15.936Z,2.10
2023-05-10T09:24:46.225Z,2.50
2023-05-10T09:27:13.592Z,2.05
2023-05-10T09:29:42.737Z,2.05
2023-05-10T09:32:10.478Z,2.10
2023-05-10T09:34:40.926Z,2.22
2023-05-10T09:37:09.213Z,2.22
2023-05-10T09:39:38.714Z,1.83
2023-05-10T09:42:08.598Z,2.10
2023-05-10T09:44:36.785Z,2.05
2023-05-10T09:47:05.250Z,1.90
2023-05-10T09:49:32.835Z,2.05
2023-05-10T09:52:05.063Z,2.10
2023-05-10T09:54:33.908Z,2.10
2023-05-10T09:57:01.867Z,2.47
2023-05-10T09:59:30.256Z,2.20
2023-05-10T10:01:59.553Z,1.90
2023-05-10T10:04:28.966Z,1.90
2023-05-10T10:07:06.203Z,2.40
2023-05-10T10:09:35.163Z,2.70
2023-05-10T10:12:03.662Z,2.00
2023-05-10T10:14:31.245Z,2.10
2023-05-10T10:17:08.197Z,1.90
2023-05-10T10:19:37.102Z,2.15
2023-05-10T10:22:05.671Z,2.08
2023-05-10T10:24:33.176Z,1.87
2023-05-10T10:27:29.721Z,2.37
2023-05-10T10:30:07.411Z,2.20
2023-05-10T10:33:10.211Z,1.87
2023-05-10T10:35:46.853Z,1.92
2023-05-10T10:38:14.894Z,1.75
2023-05-10T10:40:42.314Z,1.80
2023-05-10T10:43:27.729Z,2.10
2023-05-10T10:46:15.031Z,2.20
2023-05-10T10:48:48.871Z,1.62
2023-05-10T10:51:16.383Z,2.05
2023-05-10T10:53:44.140Z,1.80
2023-05-10T10:56:14.432Z,1.62
2023-05-10T10:58:42.631Z,1.70
2023-05-10T11:01:18.463Z,1.85
2023-05-10T11:04:01.100Z,1.70
2023-05-10T11:06:33.525Z,2.40
2023-05-10T11:09:06.827Z,1.95
2023-05-10T11:11:36.283Z,1.35
2023-05-10T11:14:05.387Z,2.28
2023-05-10T11:16:45.749Z,1.70
2023-05-10T11:19:15.208Z,1.58
2023-05-10T11:21:54.980Z,1.70
2023-05-10T11:24:24.098Z,1.80
2023-05-10T11:26:54.793Z,1.83
2023-05-10T11:29:22.505Z,1.62
2023-05-10T11:31:52.439Z,1.65
2023-05-10T11:34:39.603Z,1.30
2023-05-10T11:37:07.275Z,1.60
2023-05-10T11:39:34.963Z,1.30
2023-05-10T11:42:02.603Z,1.25
2023-05-10T11:44:32.251Z,1.25
2023-05-10T11:47:03.171Z,1.40
2023-05-10T11:49:31.032Z,1.43
2023-05-10T11:52:08.341Z,1.50
2023-05-10T11:54:36.301Z,1.37
2023-05-10T11:57:04.163Z,1.20
2023-05-10T11:59:31.632Z,1.20
2023-05-10T12:01:59.484Z,1.30
2023-05-10T12:04:27.626Z,1.42
2023-05-10T12:06:55.100Z,1.50
2023-05-10T12:09:35.525Z,1.17
2023-05-10T12:12:10.745Z,1.52
2023-05-10T12:14:38.188Z,1.17
2023-05-10T12:17:05.643Z,1.17
2023-05-10T12:19:40.078Z,1.35
2023-05-10T12:22:07.693Z,1.33
2023-05-10T12:24:36.533Z,1.40
2023-05-10T12:27:09.310Z,1.83
2023-05-10T12:29:37.112Z,1.40
2023-05-10T12:32:04.857Z,1.05
2023-05-10T12:34:32.998Z,1.60
2023-05-10T12:37:01.507Z,1.40
2023-05-10T12:39:45.619Z,1.37
2023-05-10T12:42:13.290Z,1.65
2023-05-10T12:44:41.060Z,1.00
2023-05-10T12:47:08.545Z,1.40
2023-05-10T12:49:36.364Z,1.40
2023-05-10T12:52:03.795Z,1.30
2023-05-10T12:54:31.433Z,1.37
2023-05-10T12:56:59.123Z,1.42
2023-05-10T12:59:26.477Z,1.30
2023-05-10T13:01:53.816Z,1.30
2023-05-10T13:04:21.495Z,1.60
2023-05-10T13:06:48.918Z,1.40
2023-05-10T13:09:16.388Z,1.48
2023-05-10T13:11:44.082Z,1.42
2023-05-10T13:14:11.687Z,1.10
2023-05-10T13:16:39.164Z,1.08
2023-05-10T13:19:06.933Z,1.30
2023-05-10T13:21:34.326Z,1.33
2023-05-10T13:24:02.335Z,1.73
2023-05-10T13:26:30.413Z,1.12
2023-05-10T13:28:57.878Z,0.80
2023-05-10T13:31:25.739Z,1.15
2023-05-10T13:33:53.567Z,1.10
2023-05-10T13:36:21.091Z,0.93
2023-05-10T13:38:48.480Z,0.93
2023-05-10T13:41:16.162Z,1.08
2023-05-10T13:43:43.537Z,1.00
2023-05-10T13:46:11.500Z,1.20
2023-05-10T13:48:39.323Z,0.70
2023-05-10T13:51:06.754Z,0.95
2023-05-10T13:53:34.309Z,0.98
2023-05-10T13:56:03.159Z,1.10
2023-05-10T13:58:30.578Z,1.00
2023-05-10T14:00:58.019Z,1.10
2023-05-10T14:03:25.817Z,1.10
2023-05-10T14:05:53.277Z,0.95
2023-05-10T14:08:21.144Z,0.95
2023-05-10T14:10:49.721Z,0.70
2023-05-10T14:13:17.220Z,1.17
2023-05-10T14:15:44.650Z,1.17
2023-05-10T14:18:12.312Z,1.10
2023-05-10T14:20:39.701Z,1.17
2023-05-10T14:23:08.351Z,1.20
2023-05-10T14:25:37.055Z,0.90
2023-05-10T14:28:04.646Z,1.27
2023-05-10T14:30:32.434Z,1.17
2023-05-10T14:33:02.071Z,1.23
2023-05-10T14:35:31.837Z,1.17
2023-05-10T14:37:59.605Z,1.10
2023-05-10T14:40:27.348Z,1.20
2023-05-10T14:42:54.802Z,1.05
2023-05-10T14:45:22.300Z,0.95
2023-05-10T14:47:51.099Z,0.90
2023-05-10T14:50:32.331Z,0.90
2023-05-10T14:53:04.104Z,0.93
2023-05-10T14:55:31.417Z,0.88
2023-05-10T14:57:59.273Z,1.00
2023-05-10T15:00:28.841Z,0.90
2023-05-10T15:02:56.705Z,0.90
2023-05-10T15:05:24.709Z,1.12
2023-05-10T15:07:52.860Z,0.95
2023-05-10T15:10:20.258Z,1.05
2023-05-10T15:12:47.707Z,1.00
2023-05-10T15:15:16.173Z,0.93
2023-05-10T15:17:43.776Z,1.12
2023-05-10T15:20:11.426Z,1.02
2023-05-10T15:22:39.230Z,1.20
2023-05-10T15:25:07.070Z,1.23
2023-05-10T15:27:34.443Z,0.90
2023-05-10T15:30:02.155Z,0.90
2023-05-10T15:32:30.226Z,0.80
2023-05-10T15:34:57.968Z,1.00
2023-05-10T15:37:25.662Z,0.75
2023-05-10T15:39:53.116Z,0.90
2023-05-10T15:42:20.495Z,0.93
2023-05-10T15:44:51.132Z,0.98
2023-05-10T15:47:18.897Z,0.95
2023-05-10T15:49:46.319Z,1.20
2023-05-10T15:52:14.009Z,1.20
2023-05-10T15:54:41.652Z,1.20
2023-05-10T15:57:09.212Z,1.12
2023-05-10T15:59:37.767Z,0.90
2023-05-10T16:02:05.270Z,1.00
2023-05-10T16:04:33.138Z,0.85
2023-05-10T16:07:00.614Z,1.05
2023-05-10T16:09:28.233Z,0.70
2023-05-10T16:11:56.836Z,0.93
2023-05-10T16:14:24.754Z,0.90
2023-05-10T16:16:52.283Z,1.00
2023-05-10T16:19:20.103Z,1.83
2023-05-10T16:21:47.672Z,1.62
2023-05-10T16:24:15.062Z,1.40
2023-05-10T16:26:43.294Z,1.23
2023-05-10T16:29:10.969Z,0.62
2023-05-10T16:31:38.363Z,0.93
2023-05-10T16:34:06.159Z,1.00
2023-05-10T16:36:33.991Z,0.90
2023-05-10T16:39:01.390Z,1.00
2023-05-10T16:41:29.098Z,0.60
2023-05-10T16:43:57.624Z,0.68
2023-05-10T16:46:25.312Z,1.15
2023-05-10T16:48:53.077Z,1.00
2023-05-10T16:51:20.525Z,0.88
2023-05-10T16:53:48.369Z,0.90
2023-05-10T16:56:18.336Z,1.00
2023-05-10T16:58:47.576Z,0.90
2023-05-10T17:01:15.182Z,0.70
2023-05-10T17:03:43.505Z,1.00
2023-05-10T17:06:12.151Z,1.05
2023-05-10T17:08:39.962Z,1.40
2023-05-10T17:11:08.076Z,1.15
2023-05-10T17:13:35.586Z,1.12
2023-05-10T17:16:05.955Z,1.10
2023-05-10T17:18:34.079Z,1.10
2023-05-10T17:21:01.936Z,1.40
2023-05-10T17:23:30.474Z,1.30
2023-05-10T17:26:00.221Z,1.10
2023-05-10T17:28:29.137Z,1.20
2023-05-10T17:30:57.870Z,1.33
2023-05-10T17:33:25.686Z,1.55
2023-05-10T17:35:53.557Z,1.17
2023-05-10T17:38:21.170Z,1.40
2023-05-10T17:40:48.906Z,1.58
2023-05-10T17:43:16.446Z,1.42
2023-05-10T17:45:46.633Z,1.40
2023-05-10T17:48:14.472Z,1.37
2023-05-10T17:50:43.406Z,1.45
2023-05-10T17:53:11.080Z,1.40
2023-05-10T17:55:42.025Z,1.83
2023-05-10T17:58:12.707Z,1.70
2023-05-10T18:00:40.586Z,1.40
2023-05-10T18:03:08.452Z,1.75
2023-05-10T18:05:39.350Z,1.55
2023-05-10T18:08:07.555Z,1.70
2023-05-10T18:10:40.640Z,1.70
2023-05-10T18:13:09.327Z,1.35
2023-05-10T18:15:37.471Z,1.70
2023-05-10T18:18:05.249Z,1.35
2023-05-10T18:20:32.737Z,1.35
2023-05-10T18:23:00.421Z,1.90
2023-05-10T18:25:27.880Z,1.50
2023-05-10T18:27:56.013Z,1.80
2023-05-10T18:30:23.920Z,1.52
2023-05-10T18:32:51.740Z,1.58
2023-05-10T18:35:19.510Z,1.75
2023-05-10T18:37:48.609Z,1.60
2023-05-10T18:40:17.312Z,1.60
2023-05-10T18:42:46.515Z,2.62
2023-05-10T18:45:14.487Z,4.35
2023-05-10T18:47:42.003Z,3.58
2023-05-10T18:50:10.096Z,3.22
2023-05-10T18:52:37.850Z,3.47
2023-05-10T18:55:06.094Z,2.92
2023-05-10T18:57:39.493Z,3.30
2023-05-10T19:00:10.294Z,2.40
2023-05-10T19:02:40.993Z,2.53
2023-05-10T19:05:09.458Z,2.45
2023-05-10T19:07:37.006Z,2.25
2023-05-10T19:10:05.070Z,2.00
2023-05-10T19:12:32.974Z,2.20
2023-05-10T19:15:00.398Z,1.62
2023-05-10T19:17:30.378Z,1.85
2023-05-10T19:19:59.549Z,1.45
2023-05-10T19:22:43.551Z,1.85
2023-05-10T19:25:17.089Z,1.35
2023-05-10T19:27:45.072Z,1.90
2023-05-10T19:30:12.840Z,1.65
2023-05-10T19:32:43.970Z,1.70
2023-05-10T19:35:12.699Z,1.70
2023-05-10T19:37:40.648Z,1.90
2023-05-10T19:40:08.791Z,1.52
2023-05-10T19:42:36.171Z,1.35
2023-05-10T19:45:04.071Z,1.67
2023-05-10T19:47:31.582Z,1.50
2023-05-10T19:49:59.115Z,1.73
2023-05-10T19:52:26.797Z,1.60
2023-05-10T19:54:54.515Z,1.75
2023-05-10T19:57:21.954Z,1.73
2023-05-10T19:59:49.661Z,1.52
2023-05-10T20:02:17.106Z,1.33
2023-05-10T20:04:45.135Z,1.55
2023-05-10T20:07:12.840Z,1.70
2023-05-10T20:09:40.324Z,1.80
2023-05-10T20:12:08.033Z,1.37
2023-05-10T20:14:35.453Z,1.90
2023-05-10T20:17:02.852Z,1.45
2023-05-10T20:19:30.538Z,1.75
2023-05-10T20:21:58.738Z,1.90
2023-05-10T20:24:26.516Z,1.40
2023-05-10T20:26:54.538Z,1.65
2023-05-10T20:29:22.087Z,2.00
2023-05-10T20:31:49.498Z,1.55
2023-05-10T20:34:17.337Z,2.00
2023-05-10T20:36:44.780Z,1.85
2023-05-10T20:39:12.192Z,1.50
2023-05-10T20:41:39.913Z,1.85
2023-05-10T20:44:07.409Z,1.58
2023-05-10T20:46:34.982Z,1.80
2023-05-10T20:49:02.806Z,1.50
2023-05-10T20:51:30.494Z,1.50
2023-05-10T20:53:57.955Z,1.70
2023-05-10T20:56:26.776Z,2.20
2023-05-10T20:58:54.206Z,1.90
2023-05-10T21:01:21.677Z,2.20
2023-05-10T21:03:49.378Z,1.87
2023-05-10T21:06:16.786Z,2.05
2023-05-10T21:08:44.160Z,1.80
2023-05-10T21:11:11.879Z,2.10
2023-05-10T21:13:39.297Z,1.75
2023-05-10T21:16:07.019Z,1.92
2023-05-10T21:18:34.750Z,1.62
2023-05-10T21:21:02.192Z,1.58
2023-05-10T21:23:29.577Z,1.58
2023-05-10T21:25:57.240Z,2.08
2023-05-10T21:28:25.047Z,1.70
2023-05-10T21:30:52.453Z,1.60
2023-05-10T21:33:20.136Z,1.87
2023-05-10T21:35:47.603Z,2.15
2023-05-10T21:38:15.673Z,1.55
2023-05-10T21:40:43.436Z,1.62
2023-05-10T21:43:11.228Z,1.60
2023-05-10T21:45:38.669Z,1.60
2023-05-10T21:48:06.413Z,1.80
2023-05-10T21:50:34.083Z,1.95
2023-05-10T21:53:01.781Z,1.75
2023-05-10T21:55:29.594Z,1.50
2023-05-10T21:57:58.496Z,1.85
2023-05-10T22:00:26.511Z,1.50
2023-05-10T22:02:54.241Z,1.50
2023-05-10T22:05:21.883Z,1.30
2023-05-10T22:07:49.480Z,1.67
2023-05-10T22:10:17.432Z,1.23
2023-05-10T22:12:45.286Z,1.55
2023-05-10T22:15:12.690Z,1.70
2023-05-10T22:17:40.834Z,1.67
2023-05-10T22:20:09.014Z,1.52
2023-05-10T22:22:36.828Z,1.48
2023-05-10T22:25:07.402Z,1.37
2023-05-10T22:27:35.084Z,1.50
2023-05-10T22:30:03.377Z,1.73
2023-05-10T22:32:33.735Z,1.30
2023-05-10T22:35:01.185Z,1.40
2023-05-10T22:37:28.757Z,1.37
2023-05-10T22:39:56.546Z,1.60
2023-05-10T22:42:23.957Z,1.52
2023-05-10T22:44:51.598Z,1.40
2023-05-10T22:47:19.326Z,1.60
2023-05-10T22:49:47.055Z,1.62
2023-05-10T22:52:14.401Z,1.65
2023-05-10T22:54:42.126Z,1.50
2023-05-10T22:57:09.524Z,1.27
2023-05-10T22:59:36.932Z,2.17
2023-05-10T23:02:04.678Z,1.50
2023-05-10T23:04:32.349Z,1.48
2023-05-10T23:06:59.736Z,1.55
2023-05-10T23:09:27.640Z,1.62
2023-05-10T23:11:54.997Z,1.40
2023-05-10T23:14:22.521Z,1.50
2023-05-10T23:16:50.225Z,1.62
2023-05-10T23:19:17.604Z,1.62
2023-05-10T23:21:45.040Z,1.80
2023-05-10T23:24:13.551Z,1.48
2023-05-10T23:26:41.125Z,1.62
2023-05-10T23:29:08.651Z,1.50
2023-05-10T23:31:37.158Z,1.67
2023-05-10T23:34:04.586Z,2.40
2023-05-10T23:36:33.534Z,1.80
2023-05-10T23:39:01.191Z,1.65
2023-05-10T23:41:28.599Z,2.15
2023-05-10T23:43:56.439Z,1.60
2023-05-10T23:46:24.159Z,1.70
2023-05-10T23:48:51.634Z,1.62
2023-05-10T23:51:18.990Z,1.62
2023-05-10T23:53:46.772Z,1.77
2023-05-10T23:56:14.128Z,2.00
2023-05-10T23:58:42.525Z,2.00
